Time;durP1;ratioP1;P1;durP2;ratioP2;P2;SDS_P1;SDS_P2;PMS_P1;PMS_P2;Temp;Humidity;BMP_temperature;BMP_pressure;BME280_temperature;BME280_humidity;BME280_pressure;Samples;Min_cycle;Max_cycle;Signal;HPM_P1;HPM_P2
2022/07/07 00:00:05;;;;;;;34.33;19.38;;;15.30;99.90;;;;;;5089382;28;20079;-48
2022/07/07 00:02:32;;;;;;;37.00;19.33;;;15.30;99.90;;;;;;5089161;28;20040;-47
2022/07/07 00:04:57;;;;;;;40.25;20.23;;;15.30;99.90;;;;;;5089092;28;20083;-46
2022/07/07 00:07:23;;;;;;;40.40;20.45;;;15.30;99.90;;;;;;5086777;28;20075;-49
2022/07/07 00:09:49;;;;;;;41.60;20.40;;;15.30;99.90;;;;;;5087332;28;20081;-47
2022/07/07 00:12:15;;;;;;;49.28;20.95;;;15.40;99.90;;;;;;5088155;28;20058;-47
2022/07/07 00:14:41;;;;;;;44.70;21.27;;;15.40;99.90;;;;;;5088046;28;20432;-47
2022/07/07 00:17:07;;;;;;;48.80;22.23;;;15.40;99.90;;;;;;5088844;28;20431;-47
2022/07/07 00:19:32;;;;;;;36.28;21.00;;;15.40;99.90;;;;;;5088335;28;20055;-46
2022/07/07 00:21:58;;;;;;;51.25;22.88;;;15.30;99.90;;;;;;5088306;28;20370;-48
2022/07/07 00:24:24;;;;;;;53.75;24.38;;;15.40;99.90;;;;;;5088129;28;20044;-46
2022/07/07 00:26:49;;;;;;;40.17;21.95;;;15.40;99.90;;;;;;5088129;28;20120;-48
2022/07/07 00:29:15;;;;;;;37.72;19.10;;;15.40;99.90;;;;;;5088232;28;20050;-47
2022/07/07 00:31:41;;;;;;;35.28;20.02;;;15.40;99.90;;;;;;5088210;28;20050;-47
2022/07/07 00:34:06;;;;;;;35.40;19.35;;;15.40;99.90;;;;;;5088418;28;20048;-47
2022/07/07 00:36:32;;;;;;;38.22;19.95;;;15.40;99.90;;;;;;5088034;28;20498;-50
2022/07/07 00:38:58;;;;;;;32.13;17.85;;;15.40;99.90;;;;;;5087744;28;20040;-47
2022/07/07 00:41:24;;;;;;;29.75;16.75;;;15.40;99.90;;;;;;5088000;28;20032;-47
2022/07/07 00:43:50;;;;;;;31.23;15.80;;;15.40;99.90;;;;;;5087586;28;20036;-49
2022/07/07 00:46:16;;;;;;;28.55;17.10;;;15.40;99.90;;;;;;5087806;28;20516;-46
2022/07/07 00:48:42;;;;;;;31.20;17.27;;;15.40;99.90;;;;;;5088333;28;20496;-48
2022/07/07 00:51:12;;;;;;;30.48;17.30;;;15.40;99.90;;;;;;5088813;28;20048;-46
2022/07/07 00:53:39;;;;;;;32.78;17.48;;;15.40;99.90;;;;;;5088490;28;20043;-47
2022/07/07 00:56:05;;;;;;;29.52;16.45;;;15.40;99.90;;;;;;5087742;28;20039;-46
2022/07/07 00:58:33;;;;;;;30.38;17.75;;;15.40;99.90;;;;;;5088039;28;20052;-46
2022/07/07 01:00:59;;;;;;;28.60;16.77;;;15.30;99.90;;;;;;5087160;28;20489;-50
2022/07/07 01:03:25;;;;;;;32.13;17.10;;;15.40;99.90;;;;;;5088023;28;20040;-46
2022/07/07 01:05:52;;;;;;;32.38;17.35;;;15.30;99.90;;;;;;5087765;28;20044;-47
2022/07/07 01:08:18;;;;;;;31.42;16.70;;;15.30;99.90;;;;;;5088483;28;20039;-47
2022/07/07 01:10:45;;;;;;;35.00;15.98;;;15.50;99.90;;;;;;5086538;28;20110;-48
2022/07/07 01:13:11;;;;;;;30.95;16.27;;;15.20;99.90;;;;;;5087677;28;20044;-47
2022/07/07 01:15:37;;;;;;;32.10;15.27;;;15.30;99.90;;;;;;5087451;28;20548;-47
2022/07/07 01:18:04;;;;;;;25.10;13.95;;;15.20;99.90;;;;;;5087654;28;20389;-47
2022/07/07 01:20:30;;;;;;;26.80;15.13;;;15.20;99.90;;;;;;5090093;28;20058;-47
2022/07/07 01:22:56;;;;;;;28.75;15.25;;;15.20;99.90;;;;;;5093938;28;20542;-47
2022/07/07 01:25:22;;;;;;;24.40;13.77;;;15.20;99.90;;;;;;5094693;28;20046;-47
2022/07/07 01:27:49;;;;;;;28.60;13.88;;;15.20;99.90;;;;;;5094256;28;20044;-48
2022/07/07 01:30:16;;;;;;;34.10;14.80;;;15.30;99.90;;;;;;5094093;28;20044;-48
2022/07/07 01:32:42;;;;;;;28.00;13.40;;;15.30;99.90;;;;;;5094148;28;20043;-47
2022/07/07 01:35:09;;;;;;;36.10;15.98;;;15.30;99.90;;;;;;5093964;28;20043;-49
2022/07/07 01:37:35;;;;;;;28.30;15.70;;;15.30;99.90;;;;;;5093838;28;20146;-47
2022/07/07 01:40:01;;;;;;;30.08;14.98;;;15.30;99.90;;;;;;5094092;28;20097;-48
2022/07/07 01:42:27;;;;;;;28.67;14.13;;;15.60;99.90;;;;;;5093671;28;20093;-47
2022/07/07 01:44:53;;;;;;;31.63;13.98;;;15.30;99.90;;;;;;5093893;28;20048;-47
2022/07/07 01:47:20;;;;;;;26.00;12.35;;;15.30;99.90;;;;;;5093997;28;20040;-51
2022/07/07 01:49:46;;;;;;;23.65;10.77;;;15.30;99.90;;;;;;5093958;28;20492;-51
2022/07/07 01:52:12;;;;;;;21.30;10.25;;;15.30;99.90;;;;;;5093897;28;20063;-50
2022/07/07 01:54:38;;;;;;;17.85;9.25;;;15.30;99.90;;;;;;5093630;28;20043;-47
2022/07/07 01:57:08;;;;;;;17.95;8.30;;;15.30;99.90;;;;;;5093926;28;20040;-47
2022/07/07 01:59:34;;;;;;;11.50;7.03;;;15.60;99.90;;;;;;5093976;28;20051;-47
2022/07/07 02:02:00;;;;;;;15.43;8.15;;;15.30;99.90;;;;;;5093529;28;20545;-48
2022/07/07 02:04:25;;;;;;;17.95;8.25;;;15.20;99.90;;;;;;5093969;28;20047;-48
2022/07/07 02:06:51;;;;;;;18.42;8.65;;;15.30;99.90;;;;;;5075479;28;20036;-47
2022/07/07 02:09:17;;;;;;;17.88;9.13;;;15.20;99.90;;;;;;5093777;28;20055;-47
2022/07/07 02:11:43;;;;;;;15.02;7.20;;;15.20;99.90;;;;;;5092971;28;20095;-47
2022/07/07 02:14:10;;;;;;;14.13;7.88;;;15.20;99.90;;;;;;5093878;28;20115;-48
2022/07/07 02:16:36;;;;;;;18.73;8.25;;;15.20;99.90;;;;;;5093921;28;20052;-47
2022/07/07 02:19:04;;;;;;;14.70;7.20;;;15.20;99.90;;;;;;5093426;28;20505;-48
2022/07/07 02:21:30;;;;;;;11.35;6.55;;;15.20;99.90;;;;;;5094291;28;20055;-47
2022/07/07 02:23:57;;;;;;;11.55;6.18;;;15.20;99.90;;;;;;5093452;28;20044;-47
2022/07/07 02:26:23;;;;;;;15.20;7.25;;;15.20;99.90;;;;;;5093771;28;20119;-47
2022/07/07 02:28:49;;;;;;;14.10;7.07;;;15.20;99.90;;;;;;5093609;28;20481;-47
2022/07/07 02:31:15;;;;;;;15.35;6.78;;;15.10;99.90;;;;;;5092730;28;20135;-47
2022/07/07 02:33:42;;;;;;;13.85;7.35;;;15.10;99.90;;;;;;5089736;28;20044;-47
2022/07/07 02:36:09;;;;;;;16.05;6.80;;;15.60;99.90;;;;;;5090810;28;20044;-47
2022/07/07 02:38:36;;;;;;;15.80;6.78;;;15.10;99.90;;;;;;5090334;28;20055;-47
2022/07/07 02:41:02;;;;;;;11.98;6.15;;;15.10;99.90;;;;;;5090650;28;20051;-48
2022/07/07 02:43:28;;;;;;;14.00;6.53;;;15.00;99.90;;;;;;5090799;28;20036;-47
2022/07/07 02:45:53;;;;;;;20.75;8.13;;;15.00;99.90;;;;;;5090428;28;20066;-47
2022/07/07 02:48:22;;;;;;;12.02;6.78;;;15.00;99.90;;;;;;5090239;28;20112;-47
2022/07/07 02:50:48;;;;;;;16.77;7.55;;;15.00;99.90;;;;;;5089982;28;20576;-47
2022/07/07 02:53:14;;;;;;;33.50;7.80;;;15.00;99.90;;;;;;5089891;28;20050;-47
2022/07/07 02:55:41;;;;;;;12.07;7.38;;;14.90;99.90;;;;;;5071499;28;20046;-47
2022/07/07 02:58:08;;;;;;;16.77;8.05;;;15.00;99.90;;;;;;5071429;28;20039;-47
2022/07/07 03:00:35;;;;;;;17.75;7.55;;;15.50;99.90;;;;;;5090479;28;20078;-48
2022/07/07 03:03:03;;;;;;;14.65;7.45;;;15.00;99.90;;;;;;5090037;28;20032;-48
2022/07/07 03:05:29;;;;;;;221.60;25.75;;;14.90;99.90;;;;;;5090195;28;20084;-48
2022/07/07 03:07:55;;;;;;;312.02;69.38;;;15.00;99.90;;;;;;5089648;28;20039;-47
2022/07/07 03:10:21;;;;;;;16.08;8.38;;;15.00;99.90;;;;;;5088482;28;20429;-47
2022/07/07 03:12:47;;;;;;;12.95;6.35;;;15.00;99.90;;;;;;5089903;28;20047;-47
2022/07/07 03:15:13;;;;;;;16.85;7.55;;;15.00;99.90;;;;;;5088961;28;20056;-47
2022/07/07 03:17:44;;;;;;;15.50;6.82;;;15.00;99.90;;;;;;5089359;28;20494;-48
2022/07/07 03:20:11;;;;;;;13.93;7.55;;;15.00;99.90;;;;;;5089714;28;20044;-48
2022/07/07 03:22:41;;;;;;;16.33;7.38;;;15.10;99.90;;;;;;5089532;28;20051;-47
2022/07/07 03:25:07;;;;;;;18.95;8.60;;;15.00;99.90;;;;;;5089545;28;20063;-48
2022/07/07 03:27:34;;;;;;;19.92;7.78;;;15.00;99.90;;;;;;5089486;28;20046;-47
2022/07/07 03:30:00;;;;;;;17.27;7.50;;;15.00;99.90;;;;;;5089388;28;20074;-50
2022/07/07 03:32:25;;;;;;;17.08;6.93;;;15.00;99.90;;;;;;5089453;28;20076;-47
2022/07/07 03:34:51;;;;;;;20.45;7.55;;;15.40;99.90;;;;;;5089559;28;20040;-48
2022/07/07 03:37:17;;;;;;;21.77;8.10;;;15.00;99.90;;;;;;5070697;28;20096;-47
2022/07/07 03:39:43;;;;;;;18.60;8.75;;;15.00;99.90;;;;;;5088980;28;20105;-47
2022/07/07 03:42:08;;;;;;;18.33;6.45;;;15.00;99.90;;;;;;5089012;28;20036;-47
2022/07/07 03:44:34;;;;;;;13.68;6.22;;;15.20;99.90;;;;;;5088801;28;20055;-49
2022/07/07 03:47:00;;;;;;;14.38;5.22;;;15.00;99.90;;;;;;5089736;28;20036;-47
2022/07/07 03:49:26;;;;;;;15.25;5.75;;;15.00;99.90;;;;;;5088806;28;20060;-48
2022/07/07 03:51:51;;;;;;;19.00;5.60;;;15.00;99.90;;;;;;5089426;28;20466;-47
2022/07/07 03:54:17;;;;;;;15.63;5.95;;;15.00;99.90;;;;;;5088668;28;20493;-47
2022/07/07 03:56:43;;;;;;;16.23;5.85;;;15.00;99.90;;;;;;5089016;28;20044;-47
2022/07/07 03:59:09;;;;;;;26.52;6.82;;;15.00;99.90;;;;;;5070217;28;20136;-47
2022/07/07 04:01:36;;;;;;;17.17;6.43;;;15.00;99.90;;;;;;5088603;28;20036;-47
2022/07/07 04:04:02;;;;;;;16.02;6.03;;;15.00;99.90;;;;;;5088906;28;20051;-47
2022/07/07 04:06:30;;;;;;;12.38;4.75;;;15.00;99.90;;;;;;5088615;28;20083;-48
2022/07/07 04:08:56;;;;;;;11.45;3.53;;;15.00;99.90;;;;;;5088785;28;21918;-47
2022/07/07 04:11:21;;;;;;;16.08;3.92;;;15.00;99.90;;;;;;5088164;28;20051;-48
2022/07/07 04:13:47;;;;;;;10.60;3.05;;;15.00;99.90;;;;;;5088822;28;20036;-48
2022/07/07 04:16:12;;;;;;;12.82;4.32;;;15.00;99.90;;;;;;5088249;28;20070;-47
2022/07/07 04:18:38;;;;;;;11.55;3.03;;;15.00;99.90;;;;;;5088805;28;20089;-49
2022/07/07 04:21:04;;;;;;;7.63;1.60;;;15.00;99.90;;;;;;5088857;28;20036;-49
2022/07/07 04:23:29;;;;;;;6.88;2.17;;;15.00;99.90;;;;;;5088525;28;20044;-47
2022/07/07 04:25:55;;;;;;;7.78;1.33;;;15.00;99.90;;;;;;5088902;28;20040;-49
2022/07/07 04:28:21;;;;;;;10.60;2.00;;;15.00;99.90;;;;;;5069706;28;20044;-48
2022/07/07 04:30:46;;;;;;;5.65;1.20;;;15.10;99.90;;;;;;5070243;28;20036;-49
2022/07/07 04:33:12;;;;;;;8.48;1.30;;;15.00;99.90;;;;;;5088711;28;20052;-50
2022/07/07 04:35:38;;;;;;;4.78;1.15;;;15.00;99.90;;;;;;5088450;28;20062;-47
2022/07/07 04:38:04;;;;;;;6.88;1.27;;;15.00;99.90;;;;;;5087922;28;20040;-48
2022/07/07 04:40:29;;;;;;;12.75;1.60;;;15.00;99.90;;;;;;5087777;28;20036;-48
2022/07/07 04:42:55;;;;;;;20.15;2.67;;;15.50;99.90;;;;;;5070298;28;20481;-47
2022/07/07 04:45:21;;;;;;;9.07;2.25;;;15.10;99.90;;;;;;5088281;28;20036;-48
2022/07/07 04:47:46;;;;;;;8.63;1.75;;;15.10;99.90;;;;;;5088341;28;20036;-47
2022/07/07 04:50:13;;;;;;;18.38;2.10;;;15.10;99.90;;;;;;5088069;28;20055;-47
2022/07/07 04:52:39;;;;;;;11.18;1.50;;;15.00;99.90;;;;;;5087545;28;20054;-47
2022/07/07 04:55:06;;;;;;;10.68;1.40;;;15.00;99.90;;;;;;5087333;28;20040;-47
2022/07/07 04:57:32;;;;;;;15.65;1.70;;;14.90;99.90;;;;;;5087666;28;20036;-47
2022/07/07 04:59:58;;;;;;;9.35;1.60;;;14.90;99.90;;;;;;5087595;28;20032;-48
2022/07/07 05:02:24;;;;;;;15.40;1.33;;;15.10;99.90;;;;;;5088021;28;20093;-48
2022/07/07 05:04:50;;;;;;;15.52;1.60;;;14.90;99.90;;;;;;5069426;28;20634;-47
2022/07/07 05:07:16;;;;;;;10.27;1.27;;;15.00;99.90;;;;;;5087780;28;20083;-47
2022/07/07 05:09:42;;;;;;;20.10;2.17;;;15.70;99.90;;;;;;5074690;28;20064;-47
2022/07/07 05:12:08;;;;;;;9.48;1.63;;;15.70;99.90;;;;;;5087750;28;20048;-47
2022/07/07 05:14:34;;;;;;;11.98;1.75;;;15.60;99.90;;;;;;5087545;28;20040;-47
2022/07/07 05:17:00;;;;;;;11.98;1.52;;;15.90;99.90;;;;;;5087406;28;20405;-47
2022/07/07 05:19:26;;;;;;;9.95;0.98;;;15.70;99.90;;;;;;5087417;28;20043;-47
2022/07/07 05:21:52;;;;;;;15.98;2.03;;;15.70;99.90;;;;;;5087604;28;20044;-49
2022/07/07 05:24:18;;;;;;;11.93;1.40;;;15.90;99.90;;;;;;5087414;28;20047;-46
2022/07/07 05:26:44;;;;;;;11.35;1.20;;;16.00;99.90;;;;;;5087727;28;20036;-48
2022/07/07 05:29:10;;;;;;;11.05;1.40;;;16.20;99.90;;;;;;5087250;28;20044;-48
2022/07/07 05:31:36;;;;;;;14.00;1.25;;;16.20;99.90;;;;;;5087555;28;20048;-47
2022/07/07 05:34:01;;;;;;;8.20;0.60;;;16.50;99.90;;;;;;5087400;28;20537;-48
2022/07/07 05:36:27;;;;;;;12.38;1.38;;;16.40;99.90;;;;;;5087349;28;20044;-47
2022/07/07 05:38:53;;;;;;;10.32;1.38;;;16.30;99.90;;;;;;5087799;28;20532;-48
2022/07/07 05:41:19;;;;;;;11.20;1.25;;;16.20;99.90;;;;;;5087284;28;20402;-48
2022/07/07 05:43:44;;;;;;;9.30;0.77;;;16.00;99.90;;;;;;5087765;28;20291;-47
2022/07/07 05:46:11;;;;;;;13.50;1.10;;;15.90;99.90;;;;;;5087831;28;20048;-48
2022/07/07 05:48:36;;;;;;;13.23;1.02;;;15.70;99.90;;;;;;5086959;28;20036;-48
2022/07/07 05:51:02;;;;;;;8.93;1.10;;;15.50;99.90;;;;;;5087536;28;20366;-50
2022/07/07 05:53:28;;;;;;;9.15;0.70;;;15.60;99.90;;;;;;5086916;28;20434;-48
2022/07/07 05:55:53;;;;;;;8.02;1.00;;;15.60;99.90;;;;;;5087104;28;20673;-47
2022/07/07 05:58:19;;;;;;;7.75;1.00;;;15.60;99.90;;;;;;5087326;28;20062;-50
2022/07/07 06:00:45;;;;;;;11.18;1.25;;;15.50;99.90;;;;;;5087769;28;20456;-47
2022/07/07 06:03:10;;;;;;;9.10;1.00;;;15.60;99.90;;;;;;5087602;28;20040;-47
2022/07/07 06:05:37;;;;;;;9.30;1.42;;;15.80;99.90;;;;;;5086884;28;20044;-48
2022/07/07 06:08:02;;;;;;;12.82;1.73;;;15.50;99.90;;;;;;5089416;28;20115;-47
2022/07/07 06:10:28;;;;;;;12.05;1.55;;;15.40;99.90;;;;;;5089924;28;20453;-47
2022/07/07 06:12:54;;;;;;;12.25;1.63;;;15.40;99.90;;;;;;5091377;28;20457;-51
2022/07/07 06:15:20;;;;;;;10.00;1.48;;;15.40;99.90;;;;;;5090981;28;20140;-47
2022/07/07 06:17:47;;;;;;;8.88;1.65;;;15.40;99.90;;;;;;5090705;28;20047;-47
2022/07/07 06:20:14;;;;;;;11.60;1.25;;;15.50;99.90;;;;;;5090058;28;20044;-47
2022/07/07 06:22:39;;;;;;;12.52;1.90;;;15.60;99.90;;;;;;5090142;28;20079;-48
2022/07/07 06:25:08;;;;;;;10.73;1.60;;;15.70;99.90;;;;;;5090830;28;20068;-47
2022/07/07 06:27:35;;;;;;;15.52;1.40;;;15.80;99.90;;;;;;5090877;28;20097;-47
2022/07/07 06:30:02;;;;;;;8.73;2.00;;;15.90;99.90;;;;;;5090618;28;20044;-47
2022/07/07 06:32:28;;;;;;;8.95;1.20;;;15.90;99.90;;;;;;5090835;28;20044;-47
2022/07/07 06:34:54;;;;;;;9.95;1.92;;;15.80;99.90;;;;;;5090516;28;20409;-48
2022/07/07 06:37:20;;;;;;;10.23;1.48;;;15.90;99.90;;;;;;5090098;28;20092;-47
2022/07/07 06:39:46;;;;;;;9.45;1.27;;;15.90;99.90;;;;;;5090549;28;20048;-49
2022/07/07 06:42:11;;;;;;;11.13;1.80;;;16.00;99.90;;;;;;5090038;28;20047;-47
2022/07/07 06:44:37;;;;;;;17.20;1.70;;;16.80;99.90;;;;;;5090741;28;20119;-47
2022/07/07 06:47:03;;;;;;;6.57;1.05;;;19.50;99.90;;;;;;5090818;28;20720;-48
2022/07/07 06:49:29;;;;;;;8.80;1.33;;;21.60;99.90;;;;;;5090389;28;20044;-48
2022/07/07 06:51:55;;;;;;;8.93;1.52;;;23.50;99.90;;;;;;5090597;28;20040;-48
2022/07/07 06:54:22;;;;;;;6.15;0.75;;;25.20;99.90;;;;;;5089479;28;20036;-47
2022/07/07 06:56:49;;;;;;;6.40;0.82;;;26.00;99.90;;;;;;5090527;28;20040;-49
2022/07/07 06:59:15;;;;;;;6.65;0.68;;;26.40;99.90;;;;;;5090365;28;20040;-47
2022/07/07 07:01:41;;;;;;;6.95;1.00;;;25.20;99.90;;;;;;5089888;28;20039;-48
2022/07/07 07:04:09;;;;;;;3.88;0.57;;;25.30;99.90;;;;;;5090339;28;20114;-48
2022/07/07 07:06:35;;;;;;;5.55;0.85;;;25.30;99.90;;;;;;5089717;28;20043;-49
2022/07/07 07:09:01;;;;;;;5.20;0.50;;;24.20;99.90;;;;;;5089810;28;21270;-47
2022/07/07 07:11:28;;;;;;;4.65;0.73;;;23.40;99.90;;;;;;5089780;28;20040;-47
2022/07/07 07:13:54;;;;;;;4.70;0.50;;;22.50;99.90;;;;;;5090003;28;20123;-48
2022/07/07 07:16:21;;;;;;;3.80;0.40;;;21.70;99.90;;;;;;5089869;28;20162;-48
2022/07/07 07:18:47;;;;;;;5.05;0.57;;;21.00;99.90;;;;;;5089198;28;20544;-48
2022/07/07 07:21:13;;;;;;;3.28;0.55;;;20.60;99.90;;;;;;5089661;28;20146;-47
2022/07/07 07:23:39;;;;;;;4.18;0.73;;;22.00;99.90;;;;;;5088986;28;20176;-48
2022/07/07 07:26:09;;;;;;;7.13;0.57;;;21.20;99.90;;;;;;5090079;28;20072;-47
2022/07/07 07:28:35;;;;;;;5.72;0.60;;;21.50;99.90;;;;;;5089794;28;20502;-47
2022/07/07 07:31:01;;;;;;;3.15;0.57;;;21.50;99.90;;;;;;5089811;28;20139;-47
2022/07/07 07:33:28;;;;;;;3.50;0.30;;;21.50;99.90;;;;;;5089739;28;20527;-48
2022/07/07 07:35:54;;;;;;;4.78;0.40;;;21.70;99.90;;;;;;5089824;28;20467;-47
2022/07/07 07:38:20;;;;;;;1.77;0.40;;;22.30;99.90;;;;;;5089879;28;20036;-47
2022/07/07 07:40:45;;;;;;;3.53;0.28;;;23.80;99.90;;;;;;5087600;28;20078;-48
2022/07/07 07:43:11;;;;;;;3.92;0.50;;;24.50;99.90;;;;;;5089378;28;20419;-47
2022/07/07 07:45:37;;;;;;;3.20;0.17;;;24.40;99.90;;;;;;5089233;28;20068;-48
2022/07/07 07:48:04;;;;;;;2.33;0.22;;;23.90;99.90;;;;;;5088902;28;20477;-47
2022/07/07 07:50:30;;;;;;;2.30;0.22;;;23.30;99.90;;;;;;5088964;28;20152;-50
2022/07/07 07:52:57;;;;;;;2.78;0.10;;;22.90;99.90;;;;;;5088870;28;20066;-48
2022/07/07 07:55:23;;;;;;;2.83;0.40;;;22.80;99.90;;;;;;5088493;28;20052;-48
2022/07/07 07:57:50;;;;;;;1.10;0.10;;;23.10;99.90;;;;;;5088705;28;20066;-49
2022/07/07 08:00:18;;;;;;;3.30;0.65;;;24.50;99.90;;;;;;5089402;28;20052;-55
2022/07/07 08:02:45;;;;;;;5.80;0.22;;;25.70;99.40;;;;;;5089560;28;20933;-54
2022/07/07 08:05:11;;;;;;;2.08;0.17;;;26.90;97.50;;;;;;5089720;28;20089;-54
2022/07/07 08:07:38;;;;;;;2.25;0.30;;;27.00;96.10;;;;;;5089286;28;20655;-53
2022/07/07 08:10:04;;;;;;;2.28;0.20;;;26.90;94.40;;;;;;5089301;28;20052;-54
2022/07/07 08:12:30;;;;;;;5.47;0.40;;;26.20;93.40;;;;;;5089309;28;20043;-53
2022/07/07 08:14:56;;;;;;;1.70;0.30;;;25.30;93.30;;;;;;5089652;28;20051;-53
2022/07/07 08:17:22;;;;;;;10.30;0.68;;;24.20;95.20;;;;;;5089259;28;20039;-54
2022/07/07 08:19:47;;;;;;;3.88;0.30;;;23.10;97.60;;;;;;5089389;28;20398;-54
2022/07/07 08:22:14;;;;;;;43.20;3.13;;;22.30;99.90;;;;;;5088692;28;20056;-54
2022/07/07 08:24:40;;;;;;;1.60;0.10;;;21.90;99.90;;;;;;5088078;28;20599;-53
2022/07/07 08:27:05;;;;;;;104.32;6.53;;;21.90;99.90;;;;;;5089079;28;20067;-54
2022/07/07 08:29:31;;;;;;;23.52;1.17;;;22.40;99.90;;;;;;5088443;28;20501;-54
2022/07/07 08:31:57;;;;;;;2.45;0.43;;;23.90;99.90;;;;;;5088638;28;20055;-54
2022/07/07 08:34:23;;;;;;;3.95;0.10;;;25.60;99.90;;;;;;5089050;28;20055;-50
2022/07/07 08:36:49;;;;;;;3.65;0.10;;;27.30;98.20;;;;;;5088461;28;20089;-52
2022/07/07 08:39:14;;;;;;;2.42;0.22;;;27.30;95.50;;;;;;5086967;28;20043;-48
2022/07/07 08:41:42;;;;;;;4.47;0.20;;;26.60;93.10;;;;;;5087971;28;20374;-50
2022/07/07 08:44:08;;;;;;;30.33;2.20;;;25.60;93.70;;;;;;5087753;28;20488;-52
2022/07/07 08:46:34;;;;;;;77.85;5.35;;;24.80;96.20;;;;;;5088053;28;20038;-52
2022/07/07 08:49:00;;;;;;;23.70;1.55;;;23.70;97.50;;;;;;5088347;28;20044;-51
2022/07/07 08:51:26;;;;;;;88.88;4.97;;;24.10;99.50;;;;;;5087818;28;20043;-51
2022/07/07 08:53:52;;;;;;;10.80;0.43;;;24.80;98.40;;;;;;5087394;28;20047;-49
2022/07/07 08:56:18;;;;;;;2.45;0.22;;;26.20;96.60;;;;;;5088228;28;20054;-52
2022/07/07 08:58:45;;;;;;;2.92;0.30;;;27.60;95.40;;;;;;5087792;28;20423;-52
2022/07/07 09:01:11;;;;;;;2.25;0.28;;;29.20;92.70;;;;;;5087654;28;20043;-53
2022/07/07 09:03:37;;;;;;;4.45;0.28;;;29.10;88.70;;;;;;5087486;28;20766;-52
2022/07/07 09:06:04;;;;;;;3.72;0.55;;;28.20;86.90;;;;;;5087318;28;20040;-53
2022/07/07 09:08:31;;;;;;;15.07;1.10;;;27.20;88.00;;;;;;5087524;28;20501;-48
2022/07/07 09:10:57;;;;;;;5.22;0.35;;;25.90;92.20;;;;;;5087213;28;20417;-51
2022/07/07 09:13:31;;;;;;;4.03;0.40;;;24.10;92.70;;;;;;5088006;28;20040;-52
2022/07/07 09:16:12;;;;;;;3.22;0.40;;;23.90;93.00;;;;;;5087835;28;20048;-49
2022/07/07 09:18:40;;;;;;;3.88;0.40;;;23.40;93.70;;;;;;5088017;28;20036;-52
2022/07/07 09:21:25;;;;;;;12.02;1.52;;;22.90;95.30;;;;;;5087617;28;20046;-51
2022/07/07 09:23:53;;;;;;;2.55;0.40;;;22.70;96.60;;;;;;5086121;28;20075;-54
2022/07/07 09:26:46;;;;;;;11.98;1.30;;;22.80;98.30;;;;;;5087599;28;20028;-52
2022/07/07 09:29:17;;;;;;;4.30;0.75;;;24.10;99.90;;;;;;5087291;28;20043;-53
2022/07/07 09:31:59;;;;;;;5.32;0.40;;;24.90;97.20;;;;;;5087010;28;20058;-49
2022/07/07 09:34:28;;;;;;;3.78;0.40;;;24.70;94.90;;;;;;5087421;28;20044;-53
2022/07/07 09:39:46;;;;;;;6.57;0.77;;;23.60;95.30;;;;;;5087322;28;20088;-49
2022/07/07 09:42:20;;;;;;;5.28;0.50;;;23.10;96.10;;;;;;5089954;28;20040;-51
2022/07/07 09:44:48;;;;;;;5.30;0.55;;;22.80;96.80;;;;;;5091429;28;20426;-49
2022/07/07 09:47:14;;;;;;;3.97;0.40;;;22.50;97.40;;;;;;5091674;28;20032;-44
2022/07/07 09:49:43;;;;;;;8.38;1.05;;;22.10;98.10;;;;;;5091909;28;20121;-46
2022/07/07 09:52:16;;;;;;;4.60;0.77;;;21.70;99.20;;;;;;5089718;28;20397;-46
2022/07/07 09:54:47;;;;;;;3.22;0.43;;;21.40;99.90;;;;;;5090573;28;20477;-46
2022/07/07 09:57:13;;;;;;;2.95;0.55;;;21.10;99.90;;;;;;5090842;28;20044;-47
2022/07/07 09:59:41;;;;;;;2.80;0.20;;;20.90;99.90;;;;;;5091030;28;20047;-46
2022/07/07 10:02:12;;;;;;;4.22;0.55;;;20.90;99.90;;;;;;5090986;28;20139;-47
2022/07/07 10:04:38;;;;;;;7.47;0.57;;;21.30;99.90;;;;;;5091628;28;20036;-46
2022/07/07 10:07:04;;;;;;;1.85;0.35;;;22.00;99.90;;;;;;5093697;28;20193;-46
2022/07/07 10:09:30;;;;;;;3.35;0.30;;;23.00;99.90;;;;;;5093042;28;20052;-47
2022/07/07 10:11:56;;;;;;;2.63;0.35;;;23.60;99.90;;;;;;5093381;28;20102;-47
2022/07/07 10:14:24;;;;;;;3.60;0.35;;;23.50;99.30;;;;;;5093580;28;20067;-46
2022/07/07 10:16:52;;;;;;;51.22;3.67;;;22.90;98.60;;;;;;5093507;28;20051;-47
2022/07/07 10:19:22;;;;;;;2.72;0.30;;;22.20;99.60;;;;;;5093384;28;20520;-46
2022/07/07 10:21:51;;;;;;;5.55;0.30;;;21.70;99.90;;;;;;5093568;28;20048;-46
2022/07/07 10:24:19;;;;;;;3.70;0.57;;;21.50;99.90;;;;;;5093812;28;20067;-47
2022/07/07 10:26:50;;;;;;;2.45;0.43;;;21.40;99.90;;;;;;5093487;28;20477;-46
2022/07/07 10:29:16;;;;;;;3.50;0.40;;;21.40;99.90;;;;;;5093999;28;20036;-46
2022/07/07 10:31:51;;;;;;;4.95;0.80;;;21.50;99.90;;;;;;5093661;28;20365;-47
2022/07/07 10:34:17;;;;;;;2.60;0.30;;;21.70;99.90;;;;;;5093274;28;20040;-46
2022/07/07 10:36:51;;;;;;;3.08;0.32;;;21.70;99.90;;;;;;5093412;28;20098;-47
2022/07/07 10:39:20;;;;;;;3.45;0.40;;;21.60;99.90;;;;;;5093191;28;20052;-47
2022/07/07 10:42:01;;;;;;;2.20;0.38;;;21.40;99.90;;;;;;5093441;28;20065;-46
2022/07/07 10:44:27;;;;;;;4.17;0.60;;;21.10;99.90;;;;;;5093444;28;20032;-46
2022/07/07 10:47:05;;;;;;;4.13;0.60;;;20.80;99.90;;;;;;5093032;28;20092;-46
2022/07/07 10:49:52;;;;;;;3.50;0.30;;;20.40;99.90;;;;;;5093350;28;20036;-46
2022/07/07 10:52:19;;;;;;;5.50;0.60;;;20.10;99.90;;;;;;5092675;28;20105;-47
2022/07/07 10:54:50;;;;;;;6.82;0.35;;;20.10;99.90;;;;;;5092416;28;20044;-46
2022/07/07 10:57:18;;;;;;;4.40;0.30;;;20.10;99.90;;;;;;5093004;28;20036;-47
2022/07/07 11:00:00;;;;;;;7.13;1.00;;;20.20;99.90;;;;;;5092990;28;20320;-46
2022/07/07 11:02:31;;;;;;;7.65;0.88;;;20.30;99.90;;;;;;5092899;28;20066;-47
2022/07/07 11:04:59;;;;;;;8.68;1.17;;;20.50;99.90;;;;;;5092836;28;20035;-46
2022/07/07 11:07:25;;;;;;;9.32;1.33;;;20.70;99.90;;;;;;5092740;28;20115;-46
2022/07/07 11:10:12;;;;;;;13.00;1.50;;;20.70;99.90;;;;;;5091906;28;20471;-47
2022/07/07 11:12:38;;;;;;;9.68;1.48;;;20.60;99.90;;;;;;5092753;28;20048;-48
2022/07/07 11:15:22;;;;;;;14.02;1.75;;;20.40;99.70;;;;;;5092644;28;20485;-47
2022/07/07 11:18:09;;;;;;;14.82;1.88;;;22.60;99.90;;;;;;5092325;28;20508;-46
2022/07/07 11:20:36;;;;;;;10.32;1.60;;;20.20;99.90;;;;;;5091969;28;20047;-47
2022/07/07 11:23:08;;;;;;;10.55;1.75;;;20.30;99.90;;;;;;5092138;28;20040;-47
2022/07/07 11:25:34;;;;;;;12.93;1.42;;;20.40;99.90;;;;;;5092821;28;20109;-47
2022/07/07 11:28:01;;;;;;;7.13;1.00;;;20.60;99.60;;;;;;5092229;28;20044;-46
2022/07/07 11:30:28;;;;;;;10.48;1.30;;;20.80;98.40;;;;;;5092445;28;20073;-47
2022/07/07 11:32:58;;;;;;;8.27;1.10;;;21.00;97.80;;;;;;5092166;28;20044;-47
2022/07/07 11:35:29;;;;;;;8.90;1.20;;;21.00;96.60;;;;;;5091987;28;20405;-47
2022/07/07 11:37:54;;;;;;;6.18;1.17;;;21.10;96.50;;;;;;5092015;28;20508;-46
2022/07/07 11:40:20;;;;;;;7.07;1.10;;;21.10;97.50;;;;;;5091578;28;20043;-48
2022/07/07 11:42:46;;;;;;;7.85;1.00;;;20.90;96.40;;;;;;5092245;28;20040;-46
2022/07/07 11:45:19;;;;;;;10.43;1.02;;;20.80;96.10;;;;;;5092075;28;20040;-46
2022/07/07 11:47:46;;;;;;;10.00;1.10;;;20.60;94.90;;;;;;5091885;28;20487;-47
2022/07/07 11:50:12;;;;;;;9.48;0.95;;;20.40;94.90;;;;;;5091814;28;20044;-47
2022/07/07 11:52:37;;;;;;;8.30;1.13;;;20.20;95.50;;;;;;5092046;28;20500;-46
2022/07/07 11:55:05;;;;;;;10.93;1.60;;;20.10;95.80;;;;;;5091622;28;20039;-47
2022/07/07 11:57:37;;;;;;;5.28;1.02;;;20.10;96.70;;;;;;5091935;28;20072;-46
2022/07/07 12:00:15;;;;;;;9.90;1.80;;;20.10;96.90;;;;;;5091477;28;20048;-46
2022/07/07 12:02:42;;;;;;;14.57;1.10;;;20.00;96.80;;;;;;5092166;28;20044;-47
2022/07/07 12:05:08;;;;;;;6.50;0.80;;;20.00;95.40;;;;;;5091152;28;20508;-46
2022/07/07 12:07:34;;;;;;;7.22;0.98;;;20.20;96.10;;;;;;5091777;28;20095;-47
2022/07/07 12:10:00;;;;;;;5.18;1.27;;;20.40;96.20;;;;;;5090419;28;20463;-46
2022/07/07 12:12:26;;;;;;;12.55;1.25;;;20.70;96.10;;;;;;5091339;28;20047;-47
2022/07/07 12:14:52;;;;;;;9.02;0.85;;;20.90;95.80;;;;;;5091555;28;20043;-46
2022/07/07 12:17:38;;;;;;;5.30;0.50;;;21.10;94.30;;;;;;5089997;28;20113;-46
2022/07/07 12:20:06;;;;;;;10.27;1.00;;;21.30;92.90;;;;;;5091187;28;20040;-46
2022/07/07 12:22:34;;;;;;;3.88;0.90;;;21.30;92.70;;;;;;5091516;28;20073;-47
2022/07/07 12:25:05;;;;;;;7.50;0.80;;;21.40;93.00;;;;;;5091373;28;20047;-46
2022/07/07 12:27:31;;;;;;;4.05;0.40;;;21.40;92.60;;;;;;5091084;28;20042;-46
2022/07/07 12:30:02;;;;;;;6.28;0.68;;;21.40;91.90;;;;;;5091315;28;20048;-46
2022/07/07 12:32:28;;;;;;;12.48;0.88;;;21.30;90.90;;;;;;5091377;28;20039;-47
2022/07/07 12:34:54;;;;;;;4.90;0.73;;;21.20;90.50;;;;;;5091212;28;20139;-46
2022/07/07 12:37:19;;;;;;;8.10;0.90;;;21.10;90.00;;;;;;5091019;28;20042;-46
2022/07/07 12:39:50;;;;;;;8.32;0.90;;;21.30;92.30;;;;;;5090727;28;20044;-46
2022/07/07 12:42:25;;;;;;;9.02;1.45;;;21.30;92.80;;;;;;5091127;28;20036;-47